Time;durP1;ratioP1;P1;durP2;ratioP2;P2;SDS_P1;SDS_P2;PMS_P1;PMS_P2;Temp;Humidity;BMP_temperature;BMP_pressure;BME280_temperature;BME280_humidity;BME280_pressure;Samples;Min_cycle;Max_cycle;Signal;HPM_P1;HPM_P2
2021/07/26 00:01:39;;;;;;;3.75;3.45;;;22.80;70.90;;;;;;5098493;28;20140;-72
2021/07/26 00:04:04;;;;;;;3.03;2.72;;;22.80;70.90;;;;;;5097919;28;20082;-72
2021/07/26 00:06:30;;;;;;;3.67;3.38;;;22.80;70.90;;;;;;5098077;28;20036;-71
2021/07/26 00:08:56;;;;;;;6.43;3.30;;;22.80;70.90;;;;;;5097911;28;20043;-72
2021/07/26 00:11:22;;;;;;;3.10;2.90;;;22.80;70.90;;;;;;5098016;28;20044;-72
2021/07/26 00:13:47;;;;;;;3.40;3.10;;;22.80;70.90;;;;;;5098603;28;20044;-72
2021/07/26 00:16:13;;;;;;;3.58;3.28;;;22.80;70.90;;;;;;5098051;28;20063;-72
2021/07/26 00:18:39;;;;;;;2.97;2.75;;;22.80;70.90;;;;;;5097991;28;20402;-72
2021/07/26 00:21:06;;;;;;;3.80;3.40;;;22.80;70.80;;;;;;5097621;28;20052;-72
2021/07/26 00:23:32;;;;;;;3.30;3.05;;;22.80;70.80;;;;;;5097908;28;20052;-72
2021/07/26 00:25:58;;;;;;;3.88;3.30;;;22.80;70.80;;;;;;5096948;28;20040;-72
2021/07/26 00:28:24;;;;;;;5.57;3.17;;;22.80;70.80;;;;;;5098022;28;20040;-72
2021/07/26 00:30:49;;;;;;;3.70;3.15;;;22.80;70.90;;;;;;5098312;28;20039;-72
2021/07/26 00:36:26;;;;;;;3.38;3.03;;;22.80;70.80;;;;;;5096674;28;20052;-72
2021/07/26 00:38:52;;;;;;;3.78;3.10;;;22.80;70.90;;;;;;5098150;28;20055;-72
2021/07/26 00:41:18;;;;;;;3.17;2.88;;;22.80;70.90;;;;;;5097706;28;20405;-72
2021/07/26 00:43:44;;;;;;;5.45;3.08;;;22.70;70.80;;;;;;5097371;28;20042;-72
2021/07/26 00:46:09;;;;;;;3.85;3.35;;;22.70;70.80;;;;;;5097416;28;20036;-72
2021/07/26 00:48:35;;;;;;;3.47;2.80;;;22.80;70.90;;;;;;5097452;28;20092;-72
2021/07/26 00:51:02;;;;;;;3.42;3.10;;;22.70;70.80;;;;;;5097245;28;20368;-72
2021/07/26 00:53:29;;;;;;;3.60;3.30;;;22.80;70.90;;;;;;5097372;28;20036;-72
2021/07/26 00:55:55;;;;;;;3.90;3.50;;;22.70;70.90;;;;;;5097593;28;20108;-72
2021/07/26 00:58:21;;;;;;;4.18;3.75;;;22.80;70.90;;;;;;5097448;28;20052;-72
2021/07/26 01:00:47;;;;;;;3.97;3.17;;;22.70;70.90;;;;;;5097287;28;20048;-72
2021/07/26 01:03:13;;;;;;;4.90;3.50;;;22.70;71.00;;;;;;5097139;28;20040;-72
2021/07/26 01:05:39;;;;;;;4.40;3.70;;;22.70;71.00;;;;;;5096954;28;20072;-72
2021/07/26 01:08:05;;;;;;;3.58;3.28;;;22.70;71.00;;;;;;5096860;28;20388;-72
2021/07/26 01:10:31;;;;;;;3.70;3.03;;;22.70;71.00;;;;;;5096945;28;20355;-72
2021/07/26 01:12:57;;;;;;;3.75;3.38;;;22.70;71.00;;;;;;5097090;28;20044;-72
2021/07/26 01:15:23;;;;;;;3.20;2.90;;;22.70;71.00;;;;;;5097257;28;20040;-72
2021/07/26 01:18:21;;;;;;;3.60;3.30;;;22.70;71.00;;;;;;5096681;28;20040;-72
2021/07/26 01:21:00;;;;;;;3.58;3.22;;;22.70;71.00;;;;;;5097302;28;20108;-72
2021/07/26 01:23:37;;;;;;;3.95;3.47;;;22.70;71.00;;;;;;5097050;28;20052;-72
2021/07/26 01:26:05;;;;;;;3.47;3.17;;;22.70;71.00;;;;;;5096619;28;20044;-72
2021/07/26 01:28:46;;;;;;;3.65;3.20;;;22.70;71.00;;;;;;5096610;28;20044;-72
2021/07/26 01:31:12;;;;;;;3.60;3.30;;;22.70;71.00;;;;;;5096605;28;20112;-72
2021/07/26 01:33:40;;;;;;;3.70;3.33;;;22.70;71.00;;;;;;5096520;28;20080;-72
2021/07/26 01:36:08;;;;;;;3.83;3.53;;;22.70;71.00;;;;;;5095430;28;20136;-72
2021/07/26 01:38:34;;;;;;;4.45;3.60;;;22.70;71.00;;;;;;5096950;28;20391;-72
2021/07/26 01:41:01;;;;;;;3.78;3.47;;;22.70;71.00;;;;;;5095950;28;20039;-72
2021/07/26 01:43:32;;;;;;;4.15;3.08;;;22.70;71.00;;;;;;5096353;28;20069;-72
2021/07/26 01:46:23;;;;;;;3.65;3.35;;;22.70;71.00;;;;;;5096198;28;20047;-72
2021/07/26 01:48:55;;;;;;;3.38;3.08;;;22.70;71.00;;;;;;5096317;28;20485;-72
2021/07/26 01:51:31;;;;;;;3.70;3.33;;;22.70;71.00;;;;;;5096666;28;20107;-72
2021/07/26 01:53:57;;;;;;;4.65;3.45;;;22.70;71.00;;;;;;5096583;28;20127;-72
2021/07/26 01:56:24;;;;;;;4.15;3.75;;;22.70;71.00;;;;;;5095953;28;20439;-72
2021/07/26 01:58:50;;;;;;;4.40;3.90;;;22.70;71.00;;;;;;5095942;28;20048;-72
2021/07/26 02:01:16;;;;;;;3.70;3.30;;;22.70;71.10;;;;;;5095936;28;20044;-72
2021/07/26 02:03:42;;;;;;;3.70;3.40;;;22.70;71.10;;;;;;5096010;28;20354;-72
2021/07/26 02:06:08;;;;;;;3.60;3.28;;;22.70;71.20;;;;;;5095748;28;20068;-72
2021/07/26 02:08:33;;;;;;;3.55;3.25;;;22.60;71.10;;;;;;5095690;28;20458;-72
2021/07/26 02:11:00;;;;;;;4.10;3.70;;;22.70;71.20;;;;;;5095926;28;20044;-72
2021/07/26 02:13:25;;;;;;;3.53;3.22;;;22.60;71.20;;;;;;5096059;28;20058;-72
2021/07/26 02:15:51;;;;;;;3.97;3.58;;;22.60;71.10;;;;;;5095793;28;20044;-72
2021/07/26 02:18:17;;;;;;;3.92;3.53;;;22.60;71.70;;;;;;5095836;28;20048;-72
2021/07/26 02:20:43;;;;;;;3.53;3.22;;;22.60;71.10;;;;;;5096170;28;20043;-72
2021/07/26 02:23:09;;;;;;;3.65;3.30;;;22.70;71.10;;;;;;5095350;28;20130;-72
2021/07/26 02:25:35;;;;;;;4.03;3.70;;;22.60;71.00;;;;;;5095542;28;20126;-72
2021/07/26 02:28:01;;;;;;;4.20;3.78;;;22.60;71.00;;;;;;5095949;28;20114;-72
2021/07/26 02:30:27;;;;;;;3.75;3.33;;;22.60;71.00;;;;;;5095551;28;20040;-72
2021/07/26 02:32:52;;;;;;;3.88;3.25;;;22.60;71.00;;;;;;5095463;28;20124;-72
2021/07/26 02:35:18;;;;;;;4.65;3.58;;;22.60;71.00;;;;;;5095359;28;20535;-72
2021/07/26 02:37:44;;;;;;;3.78;3.35;;;22.60;71.00;;;;;;5095380;28;20051;-72
2021/07/26 02:40:11;;;;;;;3.88;3.58;;;22.60;71.00;;;;;;5095111;28;20048;-72
2021/07/26 02:42:37;;;;;;;4.63;3.72;;;22.60;71.00;;;;;;5096019;28;20411;-72
2021/07/26 02:45:03;;;;;;;4.18;3.78;;;22.60;71.00;;;;;;5095303;28;20097;-72
2021/07/26 02:47:29;;;;;;;4.20;3.78;;;22.60;71.00;;;;;;5094544;28;20052;-72
2021/07/26 02:49:55;;;;;;;3.67;3.38;;;22.60;71.00;;;;;;5094860;28;20054;-72
2021/07/26 02:52:20;;;;;;;3.47;3.17;;;22.60;71.00;;;;;;5095675;28;20055;-72
2021/07/26 02:54:46;;;;;;;4.50;4.05;;;22.50;71.00;;;;;;5095200;28;20428;-72
2021/07/26 02:57:12;;;;;;;5.28;4.32;;;22.60;71.10;;;;;;5095269;28;20044;-72
2021/07/26 02:59:38;;;;;;;4.32;3.92;;;22.50;71.00;;;;;;5095054;28;20131;-72
2021/07/26 03:02:04;;;;;;;3.65;3.10;;;22.50;71.00;;;;;;5095210;28;20359;-72
2021/07/26 03:04:30;;;;;;;3.70;3.40;;;22.60;71.00;;;;;;5095007;28;20047;-72
2021/07/26 03:06:56;;;;;;;4.85;3.90;;;22.60;71.00;;;;;;5095119;28;20089;-72
2021/07/26 03:09:22;;;;;;;4.10;3.60;;;22.50;71.00;;;;;;5095426;28;20063;-72
2021/07/26 03:11:48;;;;;;;4.35;3.40;;;22.50;71.00;;;;;;5095141;28;20040;-72
2021/07/26 03:14:13;;;;;;;4.15;3.75;;;22.60;71.10;;;;;;5094992;28;20040;-72
2021/07/26 03:16:39;;;;;;;3.95;3.65;;;22.50;71.10;;;;;;5095068;28;20044;-72
2021/07/26 03:19:05;;;;;;;4.15;3.75;;;22.50;71.00;;;;;;5077203;28;20048;-72
2021/07/26 03:21:31;;;;;;;4.72;3.75;;;22.50;71.00;;;;;;5094734;28;20082;-72
2021/07/26 03:23:56;;;;;;;4.55;3.97;;;22.50;71.00;;;;;;5094952;28;20492;-72
2021/07/26 03:26:23;;;;;;;3.80;3.30;;;22.50;71.00;;;;;;5077490;28;20124;-72
2021/07/26 03:28:48;;;;;;;3.75;3.35;;;22.50;71.00;;;;;;5095109;28;20068;-72
2021/07/26 03:31:14;;;;;;;4.72;3.67;;;22.50;71.00;;;;;;5094835;28;20048;-72
2021/07/26 03:33:40;;;;;;;4.70;3.65;;;22.50;71.00;;;;;;5094522;28;20040;-72
2021/07/26 03:36:06;;;;;;;4.05;3.65;;;22.50;70.90;;;;;;5094754;28;20042;-72
2021/07/26 03:38:32;;;;;;;3.63;3.33;;;22.50;71.00;;;;;;5094838;28;20036;-72
2021/07/26 03:40:57;;;;;;;4.07;3.67;;;22.50;71.00;;;;;;5094631;28;20077;-72
2021/07/26 03:43:23;;;;;;;3.90;3.50;;;22.50;71.00;;;;;;5094843;28;20035;-72
2021/07/26 03:45:49;;;;;;;4.00;3.70;;;22.50;71.00;;;;;;5094779;28;20035;-72
2021/07/26 03:48:15;;;;;;;4.03;3.72;;;22.50;71.00;;;;;;5094576;28;20047;-72
2021/07/26 03:50:41;;;;;;;4.30;3.90;;;22.50;71.00;;;;;;5094595;28;20047;-72
2021/07/26 03:53:07;;;;;;;4.20;2.85;;;22.50;71.00;;;;;;5094684;28;20048;-72
2021/07/26 03:55:34;;;;;;;3.95;3.63;;;22.50;71.00;;;;;;5095201;28;20044;-72
2021/07/26 03:58:00;;;;;;;4.07;3.58;;;22.50;71.10;;;;;;5094787;28;20044;-72
2021/07/26 04:00:30;;;;;;;3.47;3.17;;;22.50;71.00;;;;;;5096545;28;20067;-72
2021/07/26 04:05:55;;;;;;;3.85;3.45;;;22.50;71.00;;;;;;5098329;28;20047;-72
2021/07/26 04:08:24;;;;;;;3.67;3.38;;;22.50;71.00;;;;;;5097164;28;20048;-72
2021/07/26 04:11:03;;;;;;;3.70;3.40;;;22.50;71.00;;;;;;5097710;28;20402;-72
2021/07/26 04:13:29;;;;;;;3.30;3.00;;;22.50;71.00;;;;;;5098043;28;20475;-72
2021/07/26 04:15:55;;;;;;;3.53;3.22;;;22.50;71.00;;;;;;5098740;28;20101;-72
2021/07/26 04:18:21;;;;;;;3.42;3.13;;;22.50;71.10;;;;;;5097972;28;20450;-72
2021/07/26 04:20:47;;;;;;;3.72;3.13;;;22.50;71.00;;;;;;5097997;28;20044;-72
2021/07/26 04:23:15;;;;;;;3.83;3.38;;;22.40;70.90;;;;;;5097800;28;20119;-72
2021/07/26 04:25:40;;;;;;;3.08;2.80;;;22.50;71.00;;;;;;5097420;28;20071;-72
2021/07/26 04:28:09;;;;;;;3.70;2.95;;;22.50;71.00;;;;;;5098396;28;20040;-72
2021/07/26 04:30:36;;;;;;;3.60;3.30;;;22.50;70.90;;;;;;5098517;28;20048;-72
2021/07/26 04:33:02;;;;;;;3.22;2.92;;;22.50;71.00;;;;;;5097698;28;20465;-72
2021/07/26 04:35:28;;;;;;;3.78;3.40;;;22.50;71.00;;;;;;5097281;28;20072;-72
2021/07/26 04:37:54;;;;;;;4.45;3.40;;;22.50;70.90;;;;;;5097717;28;20035;-72
2021/07/26 04:40:21;;;;;;;3.78;3.40;;;22.50;70.90;;;;;;5097615;28;20043;-72
2021/07/26 04:42:47;;;;;;;3.92;3.53;;;22.40;70.90;;;;;;5097652;28;20036;-72
2021/07/26 04:45:13;;;;;;;3.63;3.25;;;22.50;71.00;;;;;;5097725;28;20044;-72
2021/07/26 04:47:40;;;;;;;3.65;3.33;;;22.50;71.00;;;;;;5097263;28;20067;-72
2021/07/26 04:50:06;;;;;;;3.80;3.40;;;22.40;70.90;;;;;;5097681;28;20044;-72
2021/07/26 04:52:32;;;;;;;3.30;3.00;;;22.50;71.00;;;;;;5097318;28;20343;-72
2021/07/26 04:54:58;;;;;;;3.22;2.90;;;22.40;70.90;;;;;;5097472;28;20040;-72
2021/07/26 04:57:24;;;;;;;3.33;3.03;;;22.50;71.00;;;;;;5097845;28;20055;-72
2021/07/26 04:59:50;;;;;;;3.90;3.33;;;22.50;71.00;;;;;;5097710;28;20051;-72
2021/07/26 05:02:16;;;;;;;3.75;3.03;;;22.40;70.90;;;;;;5079475;28;20036;-72
2021/07/26 05:04:42;;;;;;;3.95;3.58;;;22.50;71.00;;;;;;5097136;28;20071;-72
2021/07/26 05:07:08;;;;;;;3.50;3.20;;;22.40;71.00;;;;;;5096877;28;20432;-72
2021/07/26 05:09:40;;;;;;;3.50;3.20;;;22.50;71.00;;;;;;5097496;28;20047;-72
2021/07/26 05:12:13;;;;;;;3.30;3.00;;;22.50;71.00;;;;;;5097120;28;20032;-72
2021/07/26 05:14:43;;;;;;;3.50;3.20;;;22.40;71.00;;;;;;5096816;28;20289;-72
2021/07/26 05:17:10;;;;;;;3.40;3.10;;;22.40;71.10;;;;;;5096949;28;20040;-72
2021/07/26 05:19:36;;;;;;;3.42;3.13;;;22.50;71.10;;;;;;5097443;28;20044;-72
2021/07/26 05:22:03;;;;;;;3.00;2.70;;;22.40;71.10;;;;;;5096765;28;20040;-72
2021/07/26 05:24:29;;;;;;;3.58;3.28;;;22.40;71.10;;;;;;5096834;28;20058;-72
2021/07/26 05:27:04;;;;;;;3.22;2.92;;;22.40;71.10;;;;;;5096864;28;20421;-72
2021/07/26 05:29:31;;;;;;;3.85;3.28;;;22.40;71.00;;;;;;5096967;28;20047;-72
2021/07/26 05:31:58;;;;;;;3.58;3.28;;;22.40;71.10;;;;;;5096844;28;20066;-72
2021/07/26 05:34:24;;;;;;;3.50;3.20;;;22.50;71.10;;;;;;5096661;28;20044;-72
2021/07/26 05:36:50;;;;;;;3.67;3.05;;;22.40;71.10;;;;;;5096230;28;20054;-72
2021/07/26 05:39:17;;;;;;;3.67;3.17;;;22.40;71.10;;;;;;5096481;28;20115;-72
2021/07/26 05:41:43;;;;;;;3.50;3.20;;;22.40;71.10;;;;;;5096442;28;20040;-72
2021/07/26 05:44:09;;;;;;;3.42;3.10;;;22.50;71.10;;;;;;5096429;28;20074;-72
2021/07/26 05:46:35;;;;;;;3.85;3.40;;;22.50;71.10;;;;;;5096123;28;20064;-72
2021/07/26 05:49:01;;;;;;;3.13;2.75;;;22.50;71.10;;;;;;5096116;28;20064;-72
2021/07/26 05:51:26;;;;;;;3.80;3.05;;;22.50;71.10;;;;;;5096171;28;20487;-72
2021/07/26 05:53:52;;;;;;;3.42;3.10;;;22.50;71.10;;;;;;5096341;28;20131;-72
2021/07/26 05:56:18;;;;;;;3.65;3.35;;;22.50;71.10;;;;;;5096206;28;20453;-72
2021/07/26 05:58:46;;;;;;;3.85;3.45;;;22.50;71.10;;;;;;5096406;28;20123;-72
2021/07/26 06:03:46;;;;;;;3.65;3.22;;;22.50;71.10;;;;;;5095810;28;20043;-72
2021/07/26 06:06:12;;;;;;;4.00;3.70;;;22.50;71.10;;;;;;5095947;28;20047;-72
2021/07/26 06:08:38;;;;;;;3.50;3.20;;;22.50;71.10;;;;;;5095859;28;20040;-72
2021/07/26 06:11:04;;;;;;;3.40;3.08;;;22.50;71.20;;;;;;5096012;28;20119;-72
2021/07/26 06:13:30;;;;;;;3.60;3.30;;;22.50;71.20;;;;;;5095453;28;20524;-72
2021/07/26 06:15:57;;;;;;;3.85;3.15;;;22.40;71.10;;;;;;5095442;28;20089;-72
2021/07/26 06:18:23;;;;;;;4.07;3.35;;;22.50;71.20;;;;;;5096221;28;20035;-72
2021/07/26 06:20:49;;;;;;;3.03;2.72;;;22.50;71.10;;;;;;5096480;28;20055;-72
2021/07/26 06:23:15;;;;;;;3.63;3.13;;;22.50;71.10;;;;;;5095092;28;20111;-72
2021/07/26 06:25:41;;;;;;;3.13;2.83;;;22.50;71.10;;;;;;5095493;28;20110;-72
2021/07/26 06:28:06;;;;;;;3.53;3.20;;;22.50;71.10;;;;;;5095526;28;20208;-72
2021/07/26 06:30:33;;;;;;;3.40;2.85;;;22.50;71.10;;;;;;5095563;28;20067;-72
2021/07/26 06:32:59;;;;;;;3.13;2.80;;;22.50;71.20;;;;;;5095436;28;20071;-72
2021/07/26 06:35:24;;;;;;;3.40;3.10;;;22.50;71.20;;;;;;5095921;28;20320;-72
2021/07/26 06:37:50;;;;;;;4.22;3.20;;;22.50;71.20;;;;;;5095425;28;20089;-72
2021/07/26 06:40:16;;;;;;;3.58;3.28;;;22.50;71.30;;;;;;5095794;28;20040;-72
2021/07/26 06:42:42;;;;;;;3.50;3.10;;;22.50;71.30;;;;;;5095647;28;20390;-72
2021/07/26 06:45:09;;;;;;;3.72;3.17;;;22.50;71.30;;;;;;5095124;28;20097;-72
2021/07/26 06:47:35;;;;;;;3.88;3.17;;;22.50;71.30;;;;;;5095223;28;20114;-72
2021/07/26 06:50:01;;;;;;;3.40;3.10;;;22.50;71.30;;;;;;5095243;28;20040;-72
2021/07/26 06:52:27;;;;;;;3.03;2.72;;;22.50;71.20;;;;;;5095847;28;20097;-72
2021/07/26 06:54:53;;;;;;;3.28;2.80;;;22.50;71.20;;;;;;5095309;28;20048;-72
2021/07/26 06:57:18;;;;;;;3.58;3.28;;;22.50;71.10;;;;;;5095426;28;20043;-72
2021/07/26 06:59:44;;;;;;;3.90;3.38;;;22.60;71.20;;;;;;5095226;28;20044;-72
2021/07/26 07:02:10;;;;;;;3.47;3.17;;;22.60;71.20;;;;;;5094657;28;20040;-72
2021/07/26 07:04:36;;;;;;;4.25;3.38;;;22.60;71.20;;;;;;5095127;28;20044;-72
2021/07/26 07:07:05;;;;;;;3.47;3.13;;;22.70;71.20;;;;;;5095433;28;20040;-72
2021/07/26 07:09:32;;;;;;;3.28;2.75;;;22.70;71.10;;;;;;5095176;28;20436;-72
2021/07/26 07:11:57;;;;;;;3.47;3.17;;;22.70;71.10;;;;;;5095311;28;20047;-72
2021/07/26 07:14:23;;;;;;;3.70;3.40;;;22.70;71.10;;;;;;5094790;28;20040;-72
2021/07/26 07:16:49;;;;;;;4.88;3.60;;;22.70;71.10;;;;;;5094908;28;20040;-72
2021/07/26 07:19:15;;;;;;;4.05;3.13;;;22.80;71.20;;;;;;5095022;28;20047;-72
2021/07/26 07:21:41;;;;;;;3.60;3.30;;;22.70;71.10;;;;;;5095182;28;20044;-72
2021/07/26 07:24:06;;;;;;;3.75;3.33;;;22.80;71.20;;;;;;5094731;28;20040;-72
2021/07/26 07:26:32;;;;;;;3.90;3.45;;;22.80;71.20;;;;;;5094840;28;20040;-72
2021/07/26 07:28:58;;;;;;;3.97;3.58;;;22.80;71.20;;;;;;5095463;28;20067;-72
2021/07/26 07:31:28;;;;;;;3.25;2.90;;;22.80;71.20;;;;;;5094700;28;20404;-72
2021/07/26 07:33:57;;;;;;;3.80;3.10;;;22.80;71.10;;;;;;5096066;28;20435;-72
2021/07/26 07:36:25;;;;;;;3.25;2.80;;;22.80;71.00;;;;;;5099134;28;20044;-72
2021/07/26 07:38:52;;;;;;;3.28;2.97;;;22.80;71.10;;;;;;5099106;28;20123;-72
2021/07/26 07:41:18;;;;;;;3.65;2.97;;;22.90;71.10;;;;;;5098838;28;20040;-72
2021/07/26 07:43:44;;;;;;;3.58;3.25;;;22.90;71.10;;;;;;5098856;28;20043;-72
2021/07/26 07:46:10;;;;;;;3.38;3.00;;;22.90;71.00;;;;;;5098247;28;20407;-72
2021/07/26 07:48:37;;;;;;;3.97;3.30;;;22.90;71.00;;;;;;5099232;28;20122;-72
2021/07/26 07:51:05;;;;;;;3.38;3.08;;;22.90;71.00;;;;;;5098334;28;20373;-72
2021/07/26 07:53:31;;;;;;;3.42;2.80;;;22.90;71.00;;;;;;5098565;28;20111;-72
2021/07/26 07:55:57;;;;;;;3.92;3.00;;;22.90;71.00;;;;;;5098099;28;20451;-72
2021/07/26 07:58:23;;;;;;;3.22;2.92;;;23.00;71.10;;;;;;5098882;28;20051;-72
2021/07/26 08:00:51;;;;;;;3.22;2.92;;;23.00;71.10;;;;;;5098743;28;20043;-72
2021/07/26 08:03:17;;;;;;;3.10;2.80;;;23.00;71.10;;;;;;5098394;28;20052;-72
2021/07/26 08:05:43;;;;;;;3.63;3.10;;;23.00;71.10;;;;;;5098486;28;20051;-72
2021/07/26 08:08:09;;;;;;;3.38;2.78;;;23.00;71.00;;;;;;5098073;28;20044;-72
2021/07/26 08:10:34;;;;;;;3.53;3.22;;;23.00;71.00;;;;;;5098241;28;20032;-72
2021/07/26 08:13:01;;;;;;;3.15;2.85;;;23.00;70.90;;;;;;5098105;28;20050;-72
2021/07/26 08:15:26;;;;;;;3.08;2.80;;;23.00;70.90;;;;;;5098217;28;20114;-72
2021/07/26 08:17:52;;;;;;;3.90;3.50;;;23.00;70.90;;;;;;5097768;28;20119;-73
2021/07/26 08:20:18;;;;;;;3.15;2.85;;;23.00;70.90;;;;;;5098603;28;20032;-72
2021/07/26 08:22:45;;;;;;;3.45;3.15;;;23.00;71.00;;;;;;5097861;28;20032;-72
2021/07/26 08:25:12;;;;;;;3.17;2.88;;;23.00;71.00;;;;;;5098494;28;20044;-72
2021/07/26 08:28:04;;;;;;;3.17;2.88;;;23.00;71.00;;;;;;5097495;28;20028;-72
2021/07/26 08:30:33;;;;;;;2.75;2.50;;;23.00;71.00;;;;;;5093303;28;20362;-72
2021/07/26 08:33:00;;;;;;;3.25;2.95;;;23.00;71.00;;;;;;5097645;28;20530;-72
2021/07/26 08:35:27;;;;;;;3.10;2.75;;;23.10;71.10;;;;;;5097664;28;20352;-72
2021/07/26 08:37:53;;;;;;;3.40;3.10;;;23.10;71.10;;;;;;5097582;28;20379;-72
2021/07/26 08:40:21;;;;;;;2.88;2.58;;;23.10;71.70;;;;;;5097281;28;20054;-72
2021/07/26 08:42:47;;;;;;;3.55;3.22;;;23.10;71.10;;;;;;5097781;28;20120;-72
2021/07/26 08:45:13;;;;;;;3.38;3.08;;;23.10;71.10;;;;;;5096934;28;20058;-72
2021/07/26 08:47:42;;;;;;;3.88;3.15;;;23.10;71.10;;;;;;5097427;28;20040;-72
2021/07/26 08:50:09;;;;;;;3.03;2.72;;;23.10;71.20;;;;;;5097417;28;20066;-72
2021/07/26 08:52:45;;;;;;;4.20;3.20;;;23.10;71.20;;;;;;5096994;28;20048;-72
2021/07/26 08:55:13;;;;;;;3.00;2.70;;;23.20;71.30;;;;;;5098376;28;20047;-72
2021/07/26 08:57:44;;;;;;;3.72;2.55;;;23.20;71.90;;;;;;5097387;28;20056;-72
2021/07/26 09:00:12;;;;;;;3.25;2.90;;;23.20;71.30;;;;;;5097835;28;20036;-72
2021/07/26 09:02:38;;;;;;;2.95;2.63;;;23.20;71.30;;;;;;5097158;28;20058;-72
2021/07/26 09:05:07;;;;;;;3.72;2.72;;;23.20;71.40;;;;;;5096969;28;20051;-72
2021/07/26 09:07:38;;;;;;;3.20;2.78;;;23.20;71.30;;;;;;5097489;28;20032;-72
2021/07/26 09:10:17;;;;;;;3.25;2.55;;;23.20;71.30;;;;;;5097458;28;20040;-72
2021/07/26 09:12:44;;;;;;;2.90;2.70;;;23.20;71.30;;;;;;5097201;28;20192;-72
2021/07/26 09:15:16;;;;;;;2.90;2.65;;;23.20;71.30;;;;;;5096573;28;20127;-72
2021/07/26 09:17:45;;;;;;;3.42;2.83;;;23.20;71.30;;;;;;5097409;28;20051;-73
2021/07/26 09:20:16;;;;;;;3.10;2.80;;;23.20;71.30;;;;;;5096660;28;20104;-72
2021/07/26 09:22:43;;;;;;;3.05;2.58;;;23.20;71.30;;;;;;5097230;28;20036;-72
2021/07/26 09:25:26;;;;;;;2.63;2.42;;;23.20;71.50;;;;;;5096665;28;20039;-72
2021/07/26 09:28:06;;;;;;;3.45;3.08;;;23.30;71.30;;;;;;5096579;28;20370;-72
2021/07/26 09:30:52;;;;;;;2.85;2.60;;;23.20;71.30;;;;;;5097167;28;20408;-72
2021/07/26 09:33:30;;;;;;;3.35;2.45;;;23.20;71.30;;;;;;5096872;28;20040;-72
2021/07/26 09:36:07;;;;;;;3.03;2.70;;;23.30;71.30;;;;;;5096457;28;20097;-72
2021/07/26 09:38:33;;;;;;;2.58;2.30;;;23.30;71.30;;;;;;5096302;28;20123;-72
2021/07/26 09:41:01;;;;;;;2.78;2.47;;;23.30;71.30;;;;;;5097065;28;20039;-72
2021/07/26 09:43:27;;;;;;;2.95;2.60;;;23.30;71.30;;;;;;5096178;28;20043;-72
2021/07/26 09:45:54;;;;;;;2.67;2.47;;;23.30;71.40;;;;;;5096337;28;20331;-72
2021/07/26 09:48:23;;;;;;;3.53;2.88;;;23.30;71.30;;;;;;5096340;28;20466;-72
2021/07/26 09:50:50;;;;;;;2.70;2.50;;;23.30;71.30;;;;;;5096787;28;20062;-72
2021/07/26 09:53:23;;;;;;;3.33;2.75;;;23.30;71.30;;;;;;5096045;28;20043;-72
2021/07/26 09:55:49;;;;;;;;;;;23.30;71.30;;;;;;5096133;28;20362;-72
2021/07/26 09:58:18;;;;;;;3.00;2.45;;;23.30;71.30;;;;;;5095480;28;20331;-72
2021/07/26 10:00:46;;;;;;;3.25;2.50;;;23.30;71.40;;;;;;5096096;28;20066;-72
2021/07/26 10:03:14;;;;;;;2.60;2.40;;;23.30;71.30;;;;;;5096422;28;20044;-72
2021/07/26 10:05:41;;;;;;;2.50;2.30;;;23.30;71.30;;;;;;5095694;28;20088;-73
2021/07/26 10:08:08;;;;;;;3.22;2.65;;;23.40;71.40;;;;;;5096340;28;20473;-72
2021/07/26 10:10:39;;;;;;;3.30;2.80;;;23.30;71.30;;;;;;5096376;28;20039;-72
2021/07/26 10:13:07;;;;;;;3.17;2.83;;;23.30;71.30;;;;;;5096458;28;20419;-72
2021/07/26 10:15:33;;;;;;;3.28;2.28;;;23.40;71.30;;;;;;5095458;28;20043;-72
2021/07/26 10:18:00;;;;;;;2.72;2.42;;;23.30;71.30;;;;;;5096250;28;20065;-72
2021/07/26 10:20:31;;;;;;;2.80;2.50;;;23.40;71.30;;;;;;5095678;28;20342;-72
2021/07/26 10:23:30;;;;;;;2.92;2.47;;;23.40;71.30;;;;;;5095682;28;20035;-72
2021/07/26 10:26:09;;;;;;;3.17;2.78;;;23.40;71.30;;;;;;5095637;28;20032;-72
2021/07/26 10:28:49;;;;;;;3.55;2.92;;;23.40;71.30;;;;;;5095379;28;20439;-72
2021/07/26 10:31:27;;;;;;;3.53;2.40;;;23.40;71.20;;;;;;5096190;28;20466;-72
2021/07/26 10:34:19;;;;;;;2.92;2.63;;;23.40;71.20;;;;;;5095828;28;20040;-72
2021/07/26 10:36:46;;;;;;;2.42;2.22;;;23.40;71.20;;;;;;5095432;28;20044;-72
2021/07/26 10:39:13;;;;;;;2.97;2.58;;;23.40;71.20;;;;;;5095872;28;20043;-72
2021/07/26 10:41:46;;;;;;;2.90;2.45;;;23.40;71.10;;;;;;5096004;28;20169;-72
2021/07/26 10:44:18;;;;;;;3.03;2.35;;;23.40;71.10;;;;;;5095551;28;20036;-72
2021/07/26 10:47:10;;;;;;;2.80;2.38;;;23.40;71.10;;;;;;5095497;28;20047;-72
2021/07/26 10:49:50;;;;;;;3.08;2.13;;;23.40;71.10;;;;;;5084505;28;20130;-72
2021/07/26 10:52:21;;;;;;;3.17;2.40;;;23.40;71.10;;;;;;5095379;28;20123;-72
2021/07/26 10:54:50;;;;;;;2.58;2.33;;;23.40;71.60;;;;;;5095097;28;20446;-72
2021/07/26 10:57:44;;;;;;;2.78;2.47;;;23.50;71.10;;;;;;5095129;28;20359;-72
2021/07/26 11:00:13;;;;;;;2.55;2.20;;;23.50;71.10;;;;;;5095024;28;20051;-72
2021/07/26 11:02:41;;;;;;;2.45;2.25;;;23.40;70.90;;;;;;5095395;28;20089;-72
2021/07/26 11:05:28;;;;;;;2.75;2.50;;;23.40;70.90;;;;;;5095125;28;20110;-72
2021/07/26 11:08:17;;;;;;;2.88;2.67;;;23.40;70.90;;;;;;5094950;28;20039;-72
2021/07/26 11:10:52;;;;;;;3.35;2.47;;;23.40;70.90;;;;;;5102115;28;20039;-72
2021/07/26 11:13:18;;;;;;;3.85;2.60;;;23.50;70.80;;;;;;5102246;28;20036;-72
2021/07/26 11:15:49;;;;;;;2.85;2.45;;;23.50;70.80;;;;;;5101906;28;20094;-72
2021/07/26 11:18:18;;;;;;;2.80;2.33;;;23.50;70.80;;;;;;5101605;28;20046;-73
2021/07/26 11:21:14;;;;;;;2.15;1.95;;;23.40;70.80;;;;;;5101762;28;20040;-72
2021/07/26 11:23:42;;;;;;;4.22;2.90;;;23.40;70.70;;;;;;5101744;28;20064;-72
2021/07/26 11:26:23;;;;;;;3.60;2.90;;;23.50;70.80;;;;;;5101601;28;20076;-72
2021/07/26 11:28:51;;;;;;;2.88;2.55;;;23.50;70.80;;;;;;5101448;28;20043;-73
2021/07/26 11:31:40;;;;;;;2.80;2.50;;;23.50;70.80;;;;;;5101584;28;20089;-72
2021/07/26 11:34:12;;;;;;;3.60;3.00;;;23.50;70.80;;;;;;5102023;28;20414;-72
2021/07/26 11:37:02;;;;;;;2.85;2.42;;;23.50;70.80;;;;;;5101837;28;20461;-72
2021/07/26 11:39:45;;;;;;;2.75;2.33;;;23.50;70.80;;;;;;5101211;28;20114;-72
2021/07/26 11:42:12;;;;;;;2.88;2.42;;;23.50;70.80;;;;;;5101507;28;20040;-72
2021/07/26 11:44:38;;;;;;;2.90;2.50;;;23.50;70.80;;;;;;5101579;28;20082;-72
2021/07/26 11:47:04;;;;;;;2.78;2.35;;;23.50;71.50;;;;;;5101449;28;20114;-72
2021/07/26 11:49:30;;;;;;;3.70;2.70;;;23.50;70.80;;;;;;5101380;28;20189;-72
2021/07/26 11:52:07;;;;;;;3.33;2.85;;;23.50;70.80;;;;;;5101584;28;20105;-72
2021/07/26 11:54:33;;;;;;;3.35;2.70;;;23.50;70.80;;;;;;5101386;28;20035;-72
2021/07/26 11:57:09;;;;;;;3.67;2.47;;;23.50;71.40;;;;;;5101444;28;20047;-72
2021/07/26 11:59:36;;;;;;;2.63;2.40;;;23.50;70.80;;;;;;5101103;28;20117;-72
2021/07/26 12:02:15;;;;;;;3.05;2.72;;;23.50;70.80;;;;;;5101397;28;20047;-72
2021/07/26 12:04:40;;;;;;;3.05;2.75;;;23.50;70.80;;;;;;5101209;28;20036;-72
2021/07/26 12:07:07;;;;;;;2.55;2.35;;;23.50;70.80;;;;;;5101284;28;20107;-72
2021/07/26 12:09:35;;;;;;;3.03;2.70;;;23.50;70.80;;;;;;5101410;28;20085;-72
2021/07/26 12:12:21;;;;;;;3.28;2.67;;;23.50;70.80;;;;;;5101299;28;20101;-72
2021/07/26 12:14:46;;;;;;;3.13;2.78;;;23.50;70.80;;;;;;5100827;28;20135;-72
2021/07/26 12:17:25;;;;;;;3.45;2.60;;;23.60;70.80;;;;;;5101132;28;20140;-72
2021/07/26 12:20:04;;;;;;;2.92;2.63;;;23.60;70.80;;;;;;5100388;28;20152;-72
2021/07/26 12:22:41;;;;;;;3.60;2.40;;;23.60;70.80;;;;;;5097923;28;20051;-72
2021/07/26 12:25:22;;;;;;;3.10;2.70;;;23.60;70.80;;;;;;5098159;28;20039;-72
2021/07/26 12:27:56;;;;;;;2.70;2.47;;;23.60;70.80;;;;;;5097749;28;20032;-72
2021/07/26 12:30:22;;;;;;;2.90;2.60;;;23.50;70.70;;;;;;5098016;28;20067;-72
2021/07/26 12:32:52;;;;;;;3.47;2.78;;;23.50;70.70;;;;;;5097497;28;20055;-72
2021/07/26 12:35:18;;;;;;;2.88;2.47;;;23.50;70.70;;;;;;5098029;28;20123;-72
2021/07/26 12:38:20;;;;;;;3.75;2.70;;;23.60;70.70;;;;;;5097981;28;20114;-72
2021/07/26 12:41:03;;;;;;;2.70;2.50;;;23.50;70.70;;;;;;4996752;28;20042;-72
2021/07/26 12:43:29;;;;;;;2.88;2.58;;;23.60;70.80;;;;;;5089105;28;20055;-72
2021/07/26 12:46:03;;;;;;;3.05;2.60;;;23.50;70.70;;;;;;5097303;28;20040;-72
2021/07/26 12:48:30;;;;;;;2.90;2.42;;;23.60;70.70;;;;;;5097479;28;20044;-72
2021/07/26 12:50:57;;;;;;;2.92;2.63;;;23.60;70.70;;;;;;5097663;28;20036;-72
2021/07/26 12:53:25;;;;;;;3.30;2.58;;;23.60;70.70;;;;;;5097688;28;20047;-72
2021/07/26 12:55:52;;;;;;;3.15;2.80;;;23.60;70.70;;;;;;5096973;28;20451;-72
2021/07/26 12:58:19;;;;;;;2.85;2.55;;;23.50;70.60;;;;;;5097300;28;20109;-72
2021/07/26 13:00:48;;;;;;;3.17;2.90;;;23.60;70.60;;;;;;5097269;28;20040;-72
2021/07/26 13:03:16;;;;;;;2.80;2.50;;;23.60;70.70;;;;;;5097718;28;20420;-72
2021/07/26 13:05:44;;;;;;;3.30;2.63;;;23.50;70.50;;;;;;5096964;28;20466;-72